createdAt,value
2022-08-01T00:00:49.586Z,98418.78
2022-08-01T00:03:18.989Z,98417.47
2022-08-01T00:05:46.776Z,98419.97
2022-08-01T00:08:14.012Z,98417.59
2022-08-01T00:10:41.251Z,98419.97
2022-08-01T00:13:08.537Z,98420.81
2022-08-01T00:15:37.885Z,98424.09
2022-08-01T00:18:05.026Z,98421.28
2022-08-01T00:20:32.308Z,98434.31
2022-08-01T00:22:59.391Z,98429.63
2022-08-01T00:25:34.055Z,98433.28
2022-08-01T00:28:02.080Z,98421.13
2022-08-01T00:30:31.688Z,98430.41
2022-08-01T00:33:01.713Z,98433.31
2022-08-01T00:35:28.837Z,98430.66
2022-08-01T00:37:56.473Z,98438.81
2022-08-01T00:40:24.038Z,98430.91
2022-08-01T00:42:51.467Z,98435.75
2022-08-01T00:45:18.781Z,98437.03
2022-08-01T00:47:46.125Z,98433.88
2022-08-01T00:50:16.380Z,98435.22
2022-08-01T00:52:51.689Z,98440.28
2022-08-01T00:55:20.490Z,98438.16
2022-08-01T00:58:03.638Z,98442.38
2022-08-01T01:00:34.867Z,98434.97
2022-08-01T01:03:23.583Z,98437.56
2022-08-01T01:06:16.280Z,98436.25
2022-08-01T01:08:51.712Z,98437.88
2022-08-01T01:11:33.287Z,98440.59
2022-08-01T01:14:09.293Z,98447.44
2022-08-01T01:16:39.145Z,98445.06
2022-08-01T01:19:10.198Z,98444.06
2022-08-01T01:21:43.269Z,98445.03
2022-08-01T01:24:22.882Z,98437.88
2022-08-01T01:27:08.007Z,98435.97
2022-08-01T01:30:02.331Z,98441.81
2022-08-01T01:32:41.010Z,98453.13
2022-08-01T01:35:12.072Z,98446.84
2022-08-01T01:37:42.285Z,98452.66
2022-08-01T01:40:12.398Z,98452.69
2022-08-01T01:42:40.331Z,98456.47
2022-08-01T01:45:08.740Z,98453.03
2022-08-01T01:47:40.088Z,98459.41
2022-08-01T01:50:10.201Z,98456.97
2022-08-01T01:52:39.281Z,98461.19
2022-08-01T01:55:08.882Z,98460.47
2022-08-01T01:57:41.886Z,98462.38
2022-08-01T02:00:11.816Z,98459.22
2022-08-01T02:02:39.732Z,98466.06
2022-08-01T02:05:09.483Z,98466.38
2022-08-01T02:07:38.379Z,98475.72
2022-08-01T02:10:06.844Z,98473.84
2022-08-01T02:12:38.537Z,98473.09
2022-08-01T02:15:07.041Z,98472.00
2022-08-01T02:17:41.446Z,98475.44
2022-08-01T02:20:08.929Z,98477.56
2022-08-01T02:22:43.492Z,98487.09
2022-08-01T02:25:32.901Z,98486.63
2022-08-01T02:28:06.181Z,98489.56
2022-08-01T02:30:44.400Z,98489.31
2022-08-01T02:33:25.327Z,98486.16
2022-08-01T02:36:31.326Z,98489.31
2022-08-01T02:38:47.858Z,98496.50
2022-08-01T02:41:23.382Z,98496.47
2022-08-01T02:43:58.220Z,98503.09
2022-08-01T02:46:38.021Z,98500.25
2022-08-01T02:49:08.500Z,98506.56
2022-08-01T02:51:37.671Z,98505.28
2022-08-01T02:54:08.552Z,98504.25
2022-08-01T02:56:37.417Z,98506.69
2022-08-01T02:59:14.621Z,98507.78
2022-08-01T03:01:44.775Z,98505.41
2022-08-01T03:04:13.120Z,98502.56
2022-08-01T03:06:41.290Z,98509.72
2022-08-01T03:09:13.561Z,98506.81
2022-08-01T03:11:43.560Z,98507.34
2022-08-01T03:14:13.803Z,98504.75
2022-08-01T03:16:44.402Z,98500.81
2022-08-01T03:19:13.490Z,98506.34
2022-08-01T03:21:42.101Z,98506.34
2022-08-01T03:24:11.453Z,98506.09
2022-08-01T03:26:40.849Z,98507.41
2022-08-01T03:29:18.764Z,98510.28
2022-08-01T03:31:47.972Z,98512.16
2022-08-01T03:34:15.627Z,98513.47
2022-08-01T03:37:03.457Z,98516.34
2022-08-01T03:39:38.343Z,98512.69
2022-08-01T03:42:17.282Z,98519.78
2022-08-01T03:44:56.199Z,98515.81
2022-08-01T03:47:30.768Z,98513.72
2022-08-01T03:49:59.790Z,98511.09
2022-08-01T03:52:30.434Z,98514.00
2022-08-01T03:55:02.987Z,98513.75
2022-08-01T03:57:36.357Z,98520.06
2022-08-01T04:00:09.185Z,98527.19
2022-08-01T04:02:37.812Z,98525.34
2022-08-01T04:05:05.922Z,98530.38
2022-08-01T04:07:34.422Z,98524.81
2022-08-01T04:10:01.780Z,98516.34
2022-08-01T04:12:28.939Z,98520.28
2022-08-01T04:14:56.032Z,98520.53
2022-08-01T04:17:23.230Z,98530.06
2022-08-01T04:19:50.392Z,98526.88
2022-08-01T04:22:17.821Z,98531.38
2022-08-01T04:24:56.559Z,98536.09
2022-08-01T04:27:50.143Z,98547.44
2022-08-01T04:30:27.432Z,98549.53
2022-08-01T04:32:58.958Z,98553.47
2022-08-01T04:36:01.783Z,98553.94
2022-08-01T04:38:23.615Z,98559.72
2022-08-01T04:40:53.894Z,98557.31
2022-08-01T04:43:21.558Z,98566.22
2022-08-01T04:45:49.212Z,98563.31
2022-08-01T04:48:18.823Z,98563.53
2022-08-01T04:50:46.683Z,98559.25
2022-08-01T04:53:15.572Z,98561.56
2022-08-01T04:55:45.003Z,98564.41
2022-08-01T04:58:17.411Z,98564.09
2022-08-01T05:00:45.213Z,98567.59
2022-08-01T05:03:12.498Z,98576.00
2022-08-01T05:05:39.742Z,98572.59
2022-08-01T05:08:09.084Z,98579.19
2022-08-01T05:10:36.260Z,98583.91
2022-08-01T05:13:03.612Z,98580.44
2022-08-01T05:15:30.823Z,98576.47
2022-08-01T05:17:57.923Z,98585.69
2022-08-01T05:20:25.181Z,98581.13
2022-08-01T05:22:52.439Z,98582.94
2022-08-01T05:25:20.380Z,98587.63
2022-08-01T05:28:06.908Z,98584.66
2022-08-01T05:30:35.079Z,98581.41
2022-08-01T05:33:02.249Z,98586.38
2022-08-01T05:35:48.121Z,98581.03
2022-08-01T05:38:16.826Z,98583.75
2022-08-01T05:40:44.090Z,98585.50
2022-08-01T05:43:11.239Z,98583.19
2022-08-01T05:45:38.517Z,98586.41
2022-08-01T05:48:05.825Z,98581.47
2022-08-01T05:50:35.127Z,98588.78
2022-08-01T05:53:02.239Z,98588.81
2022-08-01T05:55:29.522Z,98583.75
2022-08-01T05:57:56.897Z,98583.00
2022-08-01T06:00:24.049Z,98582.56
2022-08-01T06:02:51.267Z,98588.22
2022-08-01T06:05:18.567Z,98591.50
2022-08-01T06:07:45.779Z,98596.94
2022-08-01T06:10:13.019Z,98594.81
2022-08-01T06:12:40.284Z,98592.50
2022-08-01T06:15:07.939Z,98599.16
2022-08-01T06:17:38.053Z,98604.28
2022-08-01T06:20:07.569Z,98612.84
2022-08-01T06:22:35.023Z,98601.41
2022-08-01T06:25:02.203Z,98604.50
2022-08-01T06:27:29.437Z,98606.56
2022-08-01T06:29:57.883Z,98611.19
2022-08-01T06:32:28.830Z,98602.25
2022-08-01T06:34:56.472Z,98618.19
2022-08-01T06:37:24.683Z,98616.25
2022-08-01T06:39:52.042Z,98616.22
2022-08-01T06:42:19.222Z,98616.53
2022-08-01T06:44:46.709Z,98621.41
2022-08-01T06:47:14.183Z,98617.06
2022-08-01T06:49:41.302Z,98619.44
2022-08-01T06:52:13.567Z,98620.41
2022-08-01T06:54:40.838Z,98621.00
2022-08-01T06:57:08.237Z,98619.66
2022-08-01T06:59:35.472Z,98609.56
2022-08-01T07:02:02.973Z,98619.03
2022-08-01T07:04:30.227Z,98625.31
2022-08-01T07:06:58.486Z,98622.56
2022-08-01T07:09:26.236Z,98627.78
2022-08-01T07:11:54.172Z,98628.97
2022-08-01T07:14:22.483Z,98627.50
2022-08-01T07:16:51.002Z,98622.47
2022-08-01T07:19:19.538Z,98628.19
2022-08-01T07:21:49.377Z,98626.50
2022-08-01T07:24:19.589Z,98630.28
2022-08-01T07:26:53.571Z,98629.56
2022-08-01T07:29:31.246Z,98635.06
2022-08-01T07:32:03.171Z,98625.63
2022-08-01T07:34:33.866Z,98622.00
2022-08-01T07:37:02.668Z,98619.16
2022-08-01T07:39:31.730Z,98622.63
2022-08-01T07:42:13.520Z,98613.41
2022-08-01T07:44:45.139Z,98626.09
2022-08-01T07:47:12.909Z,98630.25
2022-08-01T07:49:43.636Z,98628.59
2022-08-01T07:52:11.288Z,98638.06
2022-08-01T07:54:38.801Z,98637.16
2022-08-01T07:57:06.622Z,98631.25
2022-08-01T07:59:34.416Z,98626.78
2022-08-01T08:02:02.105Z,98628.75
2022-08-01T08:04:29.866Z,98624.38
2022-08-01T08:07:03.336Z,98620.88
2022-08-01T08:09:31.176Z,98619.84
2022-08-01T08:12:12.462Z,98622.38
2022-08-01T08:14:43.287Z,98619.00
2022-08-01T08:17:10.728Z,98620.91
2022-08-01T08:19:39.886Z,98621.69
2022-08-01T08:22:09.515Z,98618.50
2022-08-01T08:24:45.519Z,98632.53
2022-08-01T08:27:13.515Z,98617.16
2022-08-01T08:29:40.771Z,98620.84
2022-08-01T08:32:11.274Z,98621.38
2022-08-01T08:34:38.778Z,98618.72
2022-08-01T08:37:05.958Z,98622.84
2022-08-01T08:39:41.227Z,98617.78
2022-08-01T08:42:11.489Z,98617.66
2022-08-01T08:44:43.716Z,98618.28
2022-08-01T08:47:19.066Z,98622.53
2022-08-01T08:49:49.425Z,98618.75
2022-08-01T08:52:16.942Z,98624.25
2022-08-01T08:54:44.782Z,98619.34
2022-08-01T08:57:14.774Z,98617.78
2022-08-01T08:59:44.793Z,98619.38
2022-08-01T09:02:12.758Z,98618.28
2022-08-01T09:04:41.458Z,98620.13
2022-08-01T09:07:10.032Z,98620.50
2022-08-01T09:09:41.867Z,98617.34
2022-08-01T09:12:10.038Z,98616.28
2022-08-01T09:14:46.482Z,98622.06
2022-08-01T09:17:16.842Z,98624.38
2022-08-01T09:19:48.953Z,98609.50
2022-08-01T09:22:19.765Z,98619.97
2022-08-01T09:25:01.891Z,98615.19
2022-08-01T09:27:32.048Z,98611.88
2022-08-01T09:30:17.220Z,98623.06
2022-08-01T09:32:59.225Z,98619.88
2022-08-01T09:35:31.068Z,98624.66
2022-08-01T09:38:21.314Z,98624.69
2022-08-01T09:40:51.134Z,98618.75
2022-08-01T09:43:21.225Z,98625.97
2022-08-01T09:45:49.141Z,98627.84
2022-08-01T09:48:18.116Z,98628.66
2022-08-01T09:50:47.983Z,98621.94
2022-08-01T09:53:28.660Z,98627.38
2022-08-01T09:56:10.901Z,98618.41
2022-08-01T09:59:00.439Z,98626.41
2022-08-01T10:01:48.835Z,98621.63
2022-08-01T10:04:19.252Z,98611.66
2022-08-01T10:06:57.248Z,98605.56
2022-08-01T10:09:46.828Z,98600.44
2022-08-01T10:12:18.004Z,98603.91
2022-08-01T10:14:54.958Z,98598.94
2022-08-01T10:17:50.314Z,98594.53
2022-08-01T10:20:30.620Z,98597.44
2022-08-01T10:23:40.650Z,98597.41
2022-08-01T10:26:13.696Z,98597.53
2022-08-01T10:28:43.630Z,98597.09
2022-08-01T10:31:30.605Z,98598.00
2022-08-01T10:34:06.448Z,98587.53
2022-08-01T10:36:41.004Z,98598.63
2022-08-01T10:39:15.263Z,98598.94
2022-08-01T10:41:52.569Z,98597.84
2022-08-01T10:44:20.859Z,98586.38
2022-08-01T10:46:55.037Z,98589.16
2022-08-01T10:49:28.295Z,98588.63
2022-08-01T10:51:56.337Z,98593.31
2022-08-01T10:54:28.173Z,98598.09
2022-08-01T10:56:57.832Z,98593.41
2022-08-01T10:59:59.022Z,98592.59
2022-08-01T11:02:32.229Z,98599.56
2022-08-01T11:05:04.253Z,98600.88
2022-08-01T11:07:46.979Z,98604.22
2022-08-01T11:10:49.653Z,98598.97
2022-08-01T11:13:55.332Z,98597.16
2022-08-01T11:16:38.304Z,98599.16
2022-08-01T11:19:06.826Z,98597.91
2022-08-01T11:22:01.077Z,98590.38
2022-08-01T11:24:50.639Z,98602.84
2022-08-01T11:27:23.838Z,98589.97
2022-08-01T11:30:12.922Z,98578.72
2022-08-01T11:33:10.673Z,98581.41
2022-08-01T11:35:38.918Z,98591.00
2022-08-01T11:38:29.230Z,98580.84
2022-08-01T11:41:38.765Z,98589.19
2022-08-01T11:44:26.943Z,98581.78
2022-08-01T11:47:09.676Z,98584.78
2022-08-01T11:49:49.141Z,98590.72
2022-08-01T11:52:31.619Z,98586.16
2022-08-01T11:55:04.886Z,98589.25
2022-08-01T11:57:39.192Z,98592.28
2022-08-01T12:00:24.551Z,98592.84
2022-08-01T12:03:11.549Z,98581.75
2022-08-01T12:05:45.752Z,98594.94
2022-08-01T12:08:12.929Z,98587.72
2022-08-01T12:10:47.087Z,98579.59
2022-08-01T12:13:17.542Z,98579.72
2022-08-01T12:15:46.973Z,98575.63
2022-08-01T12:18:18.602Z,98581.53
2022-08-01T12:20:56.478Z,98572.63
2022-08-01T12:23:23.879Z,98561.47
2022-08-01T12:25:54.839Z,98559.72
2022-08-01T12:28:22.070Z,98557.81
2022-08-01T12:30:50.568Z,98555.56
2022-08-01T12:33:21.767Z,98552.97
2022-08-01T12:35:49.628Z,98553.31
2022-08-01T12:38:26.198Z,98554.63
2022-08-01T12:40:54.924Z,98547.25
2022-08-01T12:43:28.344Z,98557.50
2022-08-01T12:46:41.481Z,98554.03
2022-08-01T12:49:11.780Z,98564.63
2022-08-01T12:51:38.952Z,98544.75
2022-08-01T12:54:06.361Z,98545.63
2022-08-01T12:56:34.527Z,98543.09
2022-08-01T12:59:01.907Z,98543.53
2022-08-01T13:01:29.990Z,98543.00
2022-08-01T13:04:07.487Z,98537.31
2022-08-01T13:06:36.589Z,98539.81
2022-08-01T13:09:08.194Z,98543.09
2022-08-01T13:11:36.412Z,98538.34
2022-08-01T13:14:04.436Z,98535.72
2022-08-01T13:16:55.518Z,98529.28
2022-08-01T13:19:18.674Z,98532.97
2022-08-01T13:21:58.921Z,98532.97
2022-08-01T13:24:30.621Z,98530.66
2022-08-01T13:27:04.784Z,98529.22
2022-08-01T13:29:42.861Z,98524.72
2022-08-01T13:32:28.816Z,98517.78
2022-08-01T13:35:14.161Z,98516.88
2022-08-01T13:37:43.449Z,98520.53
2022-08-01T13:40:11.455Z,98512.00
2022-08-01T13:42:39.355Z,98518.84
2022-08-01T13:45:14.325Z,98517.41
2022-08-01T13:48:03.260Z,98508.00
2022-08-01T13:50:30.607Z,98504.66
2022-08-01T13:52:58.118Z,98507.19
2022-08-01T13:55:25.193Z,98510.56
2022-08-01T13:57:58.919Z,98507.19
2022-08-01T14:00:26.067Z,98504.13
2022-08-01T14:02:54.216Z,98506.00
2022-08-01T14:05:21.467Z,98506.94
2022-08-01T14:07:48.947Z,98504.53
2022-08-01T14:10:19.612Z,98501.66
2022-08-01T14:12:48.833Z,98509.41
2022-08-01T14:15:18.135Z,98507.88
2022-08-01T14:18:03.715Z,98499.47
2022-08-01T14:20:33.063Z,98502.78
2022-08-01T14:23:00.402Z,98502.94
2022-08-01T14:26:03.570Z,98506.34
2022-08-01T14:28:14.915Z,98508.66
2022-08-01T14:30:45.637Z,98512.41
2022-08-01T14:33:14.251Z,98503.38
2022-08-01T14:36:01.768Z,98513.63
2022-08-01T14:38:31.464Z,98521.22
2022-08-01T14:41:00.765Z,98520.59
2022-08-01T14:43:32.702Z,98527.19
2022-08-01T14:46:01.087Z,98529.34
2022-08-01T14:48:28.340Z,98525.78
2022-08-01T14:50:58.153Z,98530.25
2022-08-01T14:53:25.276Z,98535.34
2022-08-01T14:55:52.339Z,98526.38
2022-08-01T14:58:19.478Z,98531.78
2022-08-01T15:00:46.670Z,98519.16
2022-08-01T15:03:14.105Z,98527.41
2022-08-01T15:05:41.262Z,98525.06
2022-08-01T15:08:08.328Z,98523.06
2022-08-01T15:10:35.578Z,98525.75
2022-08-01T15:13:02.899Z,98515.81
2022-08-01T15:15:30.265Z,98522.06
2022-08-01T15:17:57.724Z,98521.28
2022-08-01T15:20:25.801Z,98525.66
2022-08-01T15:22:53.992Z,98518.22
2022-08-01T15:25:21.437Z,98526.88
2022-08-01T15:27:48.805Z,98525.16
2022-08-01T15:30:15.949Z,98522.97
2022-08-01T15:32:43.015Z,98522.31
2022-08-01T15:35:11.493Z,98516.56
2022-08-01T15:37:43.379Z,98523.47
2022-08-01T15:40:12.629Z,98528.78
2022-08-01T15:42:40.298Z,98519.56
2022-08-01T15:45:13.254Z,98516.25
2022-08-01T15:47:43.790Z,98523.84
2022-08-01T15:50:11.411Z,98520.88
2022-08-01T15:52:38.528Z,98511.34
2022-08-01T15:55:05.994Z,98521.56
2022-08-01T15:57:33.029Z,98522.13
2022-08-01T15:59:59.983Z,98526.56
2022-08-01T16:02:27.057Z,98522.78
2022-08-01T16:04:54.313Z,98523.88
2022-08-01T16:07:21.333Z,98515.38
2022-08-01T16:09:48.297Z,98511.09
2022-08-01T16:12:15.343Z,98500.44
2022-08-01T16:14:42.522Z,98501.84
2022-08-01T16:17:09.622Z,98511.88
2022-08-01T16:19:36.726Z,98505.59
2022-08-01T16:22:03.555Z,98502.84
2022-08-01T16:24:31.042Z,98503.72
2022-08-01T16:26:58.049Z,98500.28
2022-08-01T16:29:33.395Z,98502.97
2022-08-01T16:32:17.001Z,98500.41
2022-08-01T16:42:27.706Z,98507.56
2022-08-01T16:44:54.420Z,98501.50
2022-08-01T16:47:21.079Z,98504.19
2022-08-01T16:49:47.785Z,98503.59
2022-08-01T16:52:14.475Z,98514.97
2022-08-01T16:54:43.089Z,98506.69
2022-08-01T16:57:10.200Z,98507.91
2022-08-01T16:59:41.296Z,98502.75
2022-08-01T17:02:09.706Z,98509.81
2022-08-01T17:08:46.581Z,98512.72
2022-08-01T17:11:15.545Z,98508.03
2022-08-01T17:13:42.944Z,98513.72
2022-08-01T17:16:10.380Z,98511.94
2022-08-01T17:18:37.348Z,98516.94
2022-08-01T17:21:04.487Z,98511.78
2022-08-01T17:24:17.072Z,98515.34
2022-08-01T17:26:43.969Z,98518.75
2022-08-01T17:29:10.554Z,98517.88
2022-08-01T17:31:43.663Z,98512.72
2022-08-01T17:34:10.381Z,98523.78
2022-08-01T17:36:39.500Z,98512.22
2022-08-01T17:39:08.313Z,98513.41
2022-08-01T17:41:35.552Z,98520.72
2022-08-01T17:44:02.697Z,98529.25
2022-08-01T17:46:30.474Z,98525.06
2022-08-01T17:48:59.908Z,98529.03
2022-08-01T17:51:28.042Z,98531.56
2022-08-01T17:53:58.155Z,98540.88
2022-08-01T17:56:26.888Z,98538.69
2022-08-01T17:58:56.435Z,98527.28
2022-08-01T18:01:26.697Z,98541.28
2022-08-01T18:03:54.931Z,98548.72
2022-08-01T18:06:23.760Z,98556.13
2022-08-01T18:08:55.250Z,98556.59
2022-08-01T18:11:27.436Z,98556.16
2022-08-01T18:13:55.396Z,98561.69
2022-08-01T18:16:22.073Z,98560.56
2022-08-01T18:18:48.788Z,98559.81
2022-08-01T18:21:15.464Z,98567.69
2022-08-01T18:23:51.438Z,98565.63
2022-08-01T18:26:20.525Z,98564.88
2022-08-01T18:28:49.674Z,98567.25
2022-08-01T18:31:17.637Z,98563.47
2022-08-01T18:33:45.369Z,98570.88
2022-08-01T18:36:32.141Z,98568.66
2022-08-01T18:39:02.059Z,98572.28
2022-08-01T18:41:31.756Z,98577.78
2022-08-01T18:44:05.325Z,98567.69
2022-08-01T18:46:39.012Z,98571.94
2022-08-01T18:49:07.883Z,98569.56
2022-08-01T18:51:36.191Z,98575.81
2022-08-01T18:54:04.711Z,98580.69
2022-08-01T18:56:31.214Z,98579.75
2022-08-01T18:58:57.863Z,98581.44
2022-08-01T19:01:24.700Z,98578.13
2022-08-01T19:03:51.338Z,98580.16
2022-08-01T19:06:18.044Z,98579.06
2022-08-01T19:08:45.957Z,98585.63
2022-08-01T19:11:12.831Z,98594.53
2022-08-01T19:13:39.525Z,98591.34
2022-08-01T19:16:06.212Z,98601.53
2022-08-01T19:18:33.866Z,98601.66
2022-08-01T19:21:04.546Z,98604.91
2022-08-01T19:23:49.769Z,98603.44
2022-08-01T19:26:17.016Z,98601.22
2022-08-01T19:28:51.374Z,98610.25
2022-08-01T19:31:22.370Z,98610.81
2022-08-01T19:33:49.594Z,98610.44
2022-08-01T19:36:20.188Z,98617.81
2022-08-01T19:38:47.018Z,98616.06
2022-08-01T19:41:23.067Z,98625.50
2022-08-01T19:43:51.074Z,98616.28
2022-08-01T19:46:18.483Z,98616.72
2022-08-01T19:48:49.992Z,98618.88
2022-08-01T19:51:22.706Z,98626.06
2022-08-01T19:54:06.003Z,98620.88
2022-08-01T19:56:40.433Z,98631.31
2022-08-01T19:59:10.907Z,98623.06
2022-08-01T20:01:39.996Z,98626.69
2022-08-01T20:04:07.775Z,98628.97
2022-08-01T20:06:36.227Z,98619.72
2022-08-01T20:09:05.144Z,98622.75
2022-08-01T20:11:31.853Z,98628.19
2022-08-01T20:14:01.745Z,98624.03
2022-08-01T20:16:30.233Z,98624.25
2022-08-01T20:18:56.980Z,98622.66
2022-08-01T20:21:27.500Z,98626.44
2022-08-01T20:24:02.913Z,98623.88
2022-08-01T20:26:30.853Z,98621.69
2022-08-01T20:28:58.199Z,98617.06
2022-08-01T20:31:42.758Z,98616.47
2022-08-01T20:34:13.561Z,98621.56
2022-08-01T20:36:48.102Z,98621.38
2022-08-01T20:39:21.665Z,98628.19
2022-08-01T20:41:59.900Z,98613.94
2022-08-01T20:44:27.311Z,98628.09
2022-08-01T20:46:55.452Z,98620.72
2022-08-01T20:49:22.826Z,98639.56
2022-08-01T20:51:50.824Z,98638.31
2022-08-01T20:54:17.518Z,98643.47
2022-08-01T20:56:59.091Z,98642.66
2022-08-01T20:59:39.618Z,98647.75
2022-08-01T21:02:49.319Z,98652.22
2022-08-01T21:05:26.734Z,98654.38
2022-08-01T21:08:06.448Z,98652.34
2022-08-01T21:10:35.169Z,98668.03
2022-08-01T21:13:06.593Z,98663.09
2022-08-01T21:16:04.209Z,98667.81
2022-08-01T21:19:22.334Z,98670.88
2022-08-01T21:22:01.228Z,98672.59
2022-08-01T21:24:43.313Z,98676.88
2022-08-01T21:27:10.547Z,98682.16
2022-08-01T21:29:38.443Z,98683.00
2022-08-01T21:32:17.471Z,98684.03
2022-08-01T21:34:48.019Z,98683.81
2022-08-01T21:37:17.242Z,98691.00
2022-08-01T21:39:47.939Z,98696.41
2022-08-01T21:42:19.009Z,98695.66
2022-08-01T21:44:47.372Z,98699.41
2022-08-01T21:47:16.682Z,98705.25
2022-08-01T21:49:43.507Z,98700.25
2022-08-01T21:52:21.817Z,98698.91
2022-08-01T21:55:05.461Z,98699.31
2022-08-01T21:58:06.284Z,98700.63
2022-08-01T22:00:37.271Z,98700.63
2022-08-01T22:03:24.320Z,98696.06
2022-08-01T22:05:53.543Z,98694.19
2022-08-01T22:08:36.461Z,98691.84
2022-08-01T22:11:09.661Z,98697.06
2022-08-01T22:13:37.242Z,98696.06
2022-08-01T22:16:05.427Z,98693.00
2022-08-01T22:18:34.364Z,98697.13
2022-08-01T22:21:02.758Z,98703.72
2022-08-01T22:23:31.315Z,98705.66
2022-08-01T22:25:57.857Z,98703.81
2022-08-01T22:28:24.503Z,98716.28
2022-08-01T22:30:53.198Z,98704.16
2022-08-01T22:33:20.267Z,98710.03
2022-08-01T22:35:49.791Z,98718.19
2022-08-01T22:38:23.965Z,98714.81
2022-08-01T22:40:54.541Z,98707.16
2022-08-01T22:43:29.964Z,98714.06
2022-08-01T22:46:10.089Z,98704.84
2022-08-01T22:48:43.218Z,98716.84
2022-08-01T22:51:24.474Z,98706.56
2022-08-01T22:54:07.187Z,98718.50
2022-08-01T22:56:39.187Z,98709.53
2022-08-01T22:59:16.430Z,98712.00
2022-08-01T23:01:50.621Z,98710.69
2022-08-01T23:04:33.085Z,98706.22
2022-08-01T23:07:04.451Z,98706.47
2022-08-01T23:09:39.192Z,98709.13
2022-08-01T23:12:22.573Z,98714.75
2022-08-01T23:14:52.849Z,98708.38
2022-08-01T23:17:26.467Z,98709.50
2022-08-01T23:20:06.854Z,98705.88
2022-08-01T23:22:36.465Z,98707.47
2022-08-01T23:25:11.183Z,98711.75
2022-08-01T23:27:51.256Z,98719.41
2022-08-01T23:30:29.885Z,98715.75
2022-08-01T23:32:57.377Z,98713.16
2022-08-01T23:35:27.195Z,98715.03
2022-08-01T23:38:01.642Z,98722.69
2022-08-01T23:40:34.495Z,98719.81
2022-08-01T23:43:02.522Z,98719.81
2022-08-01T23:45:38.183Z,98720.34
2022-08-01T23:48:15.928Z,98719.81
2022-08-01T23:50:42.558Z,98712.94
2022-08-01T23:53:09.201Z,98706.63
2022-08-01T23:55:38.261Z,98706.09
2022-08-01T23:58:06.983Z,98705.59
